Palmyra, Pennsylvania
Current Conditions -  °F | °C
As of 11:58 PM on Tuesday 25 Nov 2014 (Local Time) from KMUI Reporting Station
Clear Clear  
Wind Chill: 36°   Ceiling: Unl
Heat Index: 36°   Visibility: 10mi
Dew Point: 30°   Wind: 2mph
Humidity: 80%   Direction: 190°S
Pressure: 30.18"   Gusts: NA
Location:  40.31°N, 76.59°W
Report Text: KMUI 260458Z AUTO 19002KT 10SM CLR 02/M01 A3018 RMK AO2 SLP225 T00201011 401500009 $
Loading
Personal Weather Stations






























Interactive Weather Map New forecast layout! Learn more

10-Day Weather Forecast

Advertisements
Track Severe Weather on mobile